sensor_id;sensor_type;location;lat;lon;timestamp;pressure;altitude;pressure_sealevel;temperature;humidity
3544;BME280;1786;52.870;9.578;2022-11-06T00:01:08;100596.72;;;19.64;50.07
3544;BME280;1786;52.870;9.578;2022-11-06T00:03:36;100596.13;;;20.22;49.19
3544;BME280;1786;52.870;9.578;2022-11-06T00:06:11;100588.16;;;19.42;50.81
3544;BME280;1786;52.870;9.578;2022-11-06T00:09:04;100593.63;;;19.33;51.44
3544;BME280;1786;52.870;9.578;2022-11-06T00:15:58;100600.38;;;19.99;50.07
3544;BME280;1786;52.870;9.578;2022-11-06T00:18:55;100589.31;;;20.02;50.29
3544;BME280;1786;52.870;9.578;2022-11-06T00:21:52;100600.03;;;20.02;50.18
3544;BME280;1786;52.870;9.578;2022-11-06T00:24:49;100596.84;;;20.32;49.44
3544;BME280;1786;52.870;9.578;2022-11-06T00:31:29;100584.38;;;19.89;50.37
3544;BME280;1786;52.870;9.578;2022-11-06T00:41:53;100572.69;;;20.32;49.93
3544;BME280;1786;52.870;9.578;2022-11-06T00:45:04;100570.59;;;20.18;49.88
3544;BME280;1786;52.870;9.578;2022-11-06T00:48:12;100573.28;;;20.18;49.73
3544;BME280;1786;52.870;9.578;2022-11-06T00:51:15;100575.75;;;19.59;51.12
3544;BME280;1786;52.870;9.578;2022-11-06T00:54:15;100572.72;;;19.98;50.45
3544;BME280;1786;52.870;9.578;2022-11-06T00:57:30;100571.91;;;20.06;50.08
3544;BME280;1786;52.870;9.578;2022-11-06T01:00:32;100558.72;;;20.55;49.32
3544;BME280;1786;52.870;9.578;2022-11-06T01:03:30;100567.38;;;20.06;50.03
3544;BME280;1786;52.870;9.578;2022-11-06T01:07:11;100574.41;;;20.07;50.02
3544;BME280;1786;52.870;9.578;2022-11-06T01:10:51;100570.97;;;19.89;50.13
3544;BME280;1786;52.870;9.578;2022-11-06T01:14:09;100552.97;;;20.16;49.85
3544;BME280;1786;52.870;9.578;2022-11-06T01:17:42;100557.06;;;19.50;50.94
3544;BME280;1786;52.870;9.578;2022-11-06T01:20:28;100555.13;;;19.78;50.67
3544;BME280;1786;52.870;9.578;2022-11-06T01:23:19;100557.50;;;19.81;50.51
3544;BME280;1786;52.870;9.578;2022-11-06T01:25:59;100547.16;;;19.06;52.00
3544;BME280;1786;52.870;9.578;2022-11-06T01:28:39;100539.84;;;19.52;51.08
3544;BME280;1786;52.870;9.578;2022-11-06T01:31:24;100546.00;;;19.88;50.54
3544;BME280;1786;52.870;9.578;2022-11-06T01:34:05;100547.16;;;19.06;52.14
3544;BME280;1786;52.870;9.578;2022-11-06T01:37:09;100547.34;;;19.93;50.11
3544;BME280;1786;52.870;9.578;2022-11-06T01:40:03;100549.47;;;20.15;49.77
3544;BME280;1786;52.870;9.578;2022-11-06T01:43:18;100550.47;;;19.62;50.94
3544;BME280;1786;52.870;9.578;2022-11-06T01:46:34;100539.53;;;19.73;50.77
3544;BME280;1786;52.870;9.578;2022-11-06T01:49:38;100536.31;;;19.70;50.81
3544;BME280;1786;52.870;9.578;2022-11-06T01:53:21;100531.88;;;18.98;52.39
3544;BME280;1786;52.870;9.578;2022-11-06T01:57:09;100544.19;;;19.09;51.92
3544;BME280;1786;52.870;9.578;2022-11-06T02:00:23;100545.00;;;18.92;51.80
3544;BME280;1786;52.870;9.578;2022-11-06T02:03:04;100537.13;;;19.26;51.44
3544;BME280;1786;52.870;9.578;2022-11-06T02:06:11;100520.19;;;18.72;53.05
3544;BME280;1786;52.870;9.578;2022-11-06T02:08:57;100516.53;;;19.27;51.31
3544;BME280;1786;52.870;9.578;2022-11-06T02:16:45;100511.94;;;18.20;53.44
3544;BME280;1786;52.870;9.578;2022-11-06T02:28:38;100512.41;;;17.48;54.97
3544;BME280;1786;52.870;9.578;2022-11-06T02:35:41;100521.31;;;18.51;53.41
3544;BME280;1786;52.870;9.578;2022-11-06T02:38:54;100513.97;;;18.81;53.06
3544;BME280;1786;52.870;9.578;2022-11-06T02:42:07;100510.38;;;18.45;53.18
3544;BME280;1786;52.870;9.578;2022-11-06T02:45:09;100493.13;;;18.29;53.28
3544;BME280;1786;52.870;9.578;2022-11-06T02:48:55;100496.75;;;18.38;52.82
3544;BME280;1786;52.870;9.578;2022-11-06T02:51:59;100498.50;;;18.75;52.33
3544;BME280;1786;52.870;9.578;2022-11-06T02:55:15;100485.78;;;18.95;52.22
3544;BME280;1786;52.870;9.578;2022-11-06T02:58:39;100474.47;;;17.92;54.03
3544;BME280;1786;52.870;9.578;2022-11-06T03:01:43;100477.16;;;18.20;53.14
3544;BME280;1786;52.870;9.578;2022-11-06T03:04:37;100475.50;;;18.09;53.96
3544;BME280;1786;52.870;9.578;2022-11-06T03:07:30;100467.72;;;18.43;53.16
3544;BME280;1786;52.870;9.578;2022-11-06T03:10:33;100461.78;;;18.67;52.22
3544;BME280;1786;52.870;9.578;2022-11-06T03:13:25;100461.56;;;18.78;52.19
3544;BME280;1786;52.870;9.578;2022-11-06T03:16:42;100463.28;;;18.52;52.90
3544;BME280;1786;52.870;9.578;2022-11-06T03:19:44;100463.59;;;18.67;52.06
3544;BME280;1786;52.870;9.578;2022-11-06T03:26:11;100447.31;;;18.42;52.44
3544;BME280;1786;52.870;9.578;2022-11-06T03:29:21;100447.31;;;19.14;51.18
3544;BME280;1786;52.870;9.578;2022-11-06T03:39:45;100447.84;;;18.00;53.13
3544;BME280;1786;52.870;9.578;2022-11-06T03:42:40;100445.72;;;18.22;53.29
3544;BME280;1786;52.870;9.578;2022-11-06T03:45:38;100448.94;;;18.53;52.69
3544;BME280;1786;52.870;9.578;2022-11-06T03:48:31;100448.28;;;18.41;52.87
3544;BME280;1786;52.870;9.578;2022-11-06T03:51:17;100452.78;;;17.95;53.81
3544;BME280;1786;52.870;9.578;2022-11-06T03:53:49;100446.44;;;18.24;52.80
3544;BME280;1786;52.870;9.578;2022-11-06T03:56:32;100446.44;;;17.96;53.28
3544;BME280;1786;52.870;9.578;2022-11-06T03:59:29;100445.22;;;17.90;53.81
3544;BME280;1786;52.870;9.578;2022-11-06T04:02:22;100443.56;;;18.35;53.00
3544;BME280;1786;52.870;9.578;2022-11-06T04:05:14;100450.75;;;18.52;52.17
3544;BME280;1786;52.870;9.578;2022-11-06T04:07:52;100447.13;;;18.26;52.87
3544;BME280;1786;52.870;9.578;2022-11-06T04:11:06;100448.53;;;18.02;53.06
3544;BME280;1786;52.870;9.578;2022-11-06T04:13:59;100450.00;;;18.42;52.09
3544;BME280;1786;52.870;9.578;2022-11-06T04:16:39;100448.19;;;18.15;53.08
3544;BME280;1786;52.870;9.578;2022-11-06T04:19:31;100453.75;;;18.22;52.61
3544;BME280;1786;52.870;9.578;2022-11-06T04:37:07;100466.34;;;18.57;51.72
3544;BME280;1786;52.870;9.578;2022-11-06T04:43:24;100467.28;;;18.66;52.03
3544;BME280;1786;52.870;9.578;2022-11-06T04:46:15;100459.25;;;18.48;52.03
3544;BME280;1786;52.870;9.578;2022-11-06T04:49:04;100457.03;;;17.88;53.04
3544;BME280;1786;52.870;9.578;2022-11-06T04:51:57;100459.44;;;18.36;52.41
3544;BME280;1786;52.870;9.578;2022-11-06T04:54:36;100457.47;;;18.56;51.52
3544;BME280;1786;52.870;9.578;2022-11-06T04:57:13;100461.13;;;18.20;52.30
3544;BME280;1786;52.870;9.578;2022-11-06T04:59:45;100458.50;;;18.10;52.79
3544;BME280;1786;52.870;9.578;2022-11-06T05:02:16;100453.22;;;18.18;52.35
3544;BME280;1786;52.870;9.578;2022-11-06T05:05:01;100452.28;;;19.09;50.54
3544;BME280;1786;52.870;9.578;2022-11-06T05:07:38;100447.91;;;18.54;51.46
3544;BME280;1786;52.870;9.578;2022-11-06T05:10:13;100442.94;;;18.41;52.02
3544;BME280;1786;52.870;9.578;2022-11-06T05:13:17;100439.38;;;18.05;52.74
3544;BME280;1786;52.870;9.578;2022-11-06T05:15:57;100438.81;;;17.64;53.78
3544;BME280;1786;52.870;9.578;2022-11-06T05:18:54;100434.56;;;17.81;53.30
3544;BME280;1786;52.870;9.578;2022-11-06T05:21:44;100434.06;;;18.23;52.60
3544;BME280;1786;52.870;9.578;2022-11-06T05:24:40;100431.25;;;17.59;53.82
3544;BME280;1786;52.870;9.578;2022-11-06T05:27:17;100438.13;;;17.99;53.31
3544;BME280;1786;52.870;9.578;2022-11-06T05:30:12;100437.91;;;18.38;52.67
3544;BME280;1786;52.870;9.578;2022-11-06T05:33:25;100438.22;;;18.35;52.30
3544;BME280;1786;52.870;9.578;2022-11-06T05:36:09;100439.84;;;18.81;51.89
3544;BME280;1786;52.870;9.578;2022-11-06T05:38:59;100433.38;;;17.93;53.09
3544;BME280;1786;52.870;9.578;2022-11-06T05:42:18;100429.59;;;18.13;52.90
3544;BME280;1786;52.870;9.578;2022-11-06T05:45:03;100430.34;;;18.51;52.26
3544;BME280;1786;52.870;9.578;2022-11-06T05:48:15;100414.94;;;17.62;53.97
3544;BME280;1786;52.870;9.578;2022-11-06T05:51:04;100413.00;;;17.92;53.86
3544;BME280;1786;52.870;9.578;2022-11-06T05:54:04;100418.44;;;18.00;53.50
3544;BME280;1786;52.870;9.578;2022-11-06T05:56:39;100421.59;;;18.13;52.89
3544;BME280;1786;52.870;9.578;2022-11-06T05:59:29;100413.41;;;16.93;55.36
3544;BME280;1786;52.870;9.578;2022-11-06T06:10:48;100427.53;;;17.33;54.99
3544;BME280;1786;52.870;9.578;2022-11-06T06:14:16;100420.28;;;17.62;54.17
3544;BME280;1786;52.870;9.578;2022-11-06T06:17:33;100426.84;;;18.05;53.46
3544;BME280;1786;52.870;9.578;2022-11-06T06:21:30;100418.47;;;18.72;51.82
3544;BME280;1786;52.870;9.578;2022-11-06T06:24:22;100422.31;;;18.87;51.56
3544;BME280;1786;52.870;9.578;2022-11-06T06:27:33;100420.84;;;18.57;52.04
3544;BME280;1786;52.870;9.578;2022-11-06T06:30:34;100421.03;;;18.91;51.46
3544;BME280;1786;52.870;9.578;2022-11-06T06:33:32;100436.38;;;18.53;52.09
3544;BME280;1786;52.870;9.578;2022-11-06T06:36:20;100418.44;;;18.81;51.66
3544;BME280;1786;52.870;9.578;2022-11-06T06:51:08;100405.09;;;18.18;52.68
3544;BME280;1786;52.870;9.578;2022-11-06T06:58:42;100411.28;;;17.53;54.23
3544;BME280;1786;52.870;9.578;2022-11-06T07:02:07;100418.03;;;17.58;54.20
3544;BME280;1786;52.870;9.578;2022-11-06T07:05:49;100418.75;;;17.97;53.88
3544;BME280;1786;52.870;9.578;2022-11-06T07:08:17;100409.38;;;17.73;53.98
3544;BME280;1786;52.870;9.578;2022-11-06T07:10:44;100411.06;;;18.30;53.22
3544;BME280;1786;52.870;9.578;2022-11-06T07:13:11;100415.78;;;18.72;52.18
3544;BME280;1786;52.870;9.578;2022-11-06T07:15:41;100405.03;;;18.28;52.92
3544;BME280;1786;52.870;9.578;2022-11-06T07:18:11;100415.25;;;18.14;53.90
3544;BME280;1786;52.870;9.578;2022-11-06T07:20:38;100415.78;;;18.18;53.02
3544;BME280;1786;52.870;9.578;2022-11-06T07:23:06;100416.94;;;18.33;52.74
3544;BME280;1786;52.870;9.578;2022-11-06T07:25:33;100424.97;;;18.69;52.31
3544;BME280;1786;52.870;9.578;2022-11-06T07:28:04;100428.22;;;19.17;51.92
3544;BME280;1786;52.870;9.578;2022-11-06T07:30:33;100431.28;;;19.22;51.70
3544;BME280;1786;52.870;9.578;2022-11-06T07:33:04;100432.41;;;18.93;52.10
3544;BME280;1786;52.870;9.578;2022-11-06T07:35:38;100429.03;;;19.35;51.33
3544;BME280;1786;52.870;9.578;2022-11-06T07:38:07;100438.25;;;19.33;51.43
3544;BME280;1786;52.870;9.578;2022-11-06T07:40:38;100430.00;;;19.86;50.29
3544;BME280;1786;52.870;9.578;2022-11-06T07:43:09;100423.09;;;19.76;50.40
3544;BME280;1786;52.870;9.578;2022-11-06T07:45:40;100425.25;;;20.23;49.51
3544;BME280;1786;52.870;9.578;2022-11-06T07:48:08;100423.94;;;19.84;49.69
3544;BME280;1786;52.870;9.578;2022-11-06T07:50:36;100428.97;;;19.27;50.97
3544;BME280;1786;52.870;9.578;2022-11-06T07:53:03;100429.84;;;19.10;51.51
3544;BME280;1786;52.870;9.578;2022-11-06T07:55:32;100427.53;;;19.15;51.05
3544;BME280;1786;52.870;9.578;2022-11-06T07:58:07;100432.03;;;18.88;52.25
3544;BME280;1786;52.870;9.578;2022-11-06T08:00:35;100426.59;;;19.76;50.66
3544;BME280;1786;52.870;9.578;2022-11-06T08:03:09;100431.03;;;20.61;49.75
3544;BME280;1786;52.870;9.578;2022-11-06T08:05:38;100429.16;;;21.99;47.79
3544;BME280;1786;52.870;9.578;2022-11-06T08:08:09;100437.50;;;22.20;46.97
3544;BME280;1786;52.870;9.578;2022-11-06T08:10:38;100440.63;;;22.55;45.82
3544;BME280;1786;52.870;9.578;2022-11-06T08:13:11;100442.31;;;22.79;45.60
3544;BME280;1786;52.870;9.578;2022-11-06T08:15:38;100435.41;;;23.38;44.62
3544;BME280;1786;52.870;9.578;2022-11-06T08:18:06;100436.47;;;24.69;42.87
3544;BME280;1786;52.870;9.578;2022-11-06T08:20:35;100428.81;;;25.22;41.28
3544;BME280;1786;52.870;9.578;2022-11-06T08:23:04;100415.81;;;26.15;41.37
3544;BME280;1786;52.870;9.578;2022-11-06T08:25:37;100416.00;;;25.65;41.41
3544;BME280;1786;52.870;9.578;2022-11-06T08:28:09;100419.44;;;25.53;41.00
3544;BME280;1786;52.870;9.578;2022-11-06T08:30:37;100412.31;;;26.34;40.51
3544;BME280;1786;52.870;9.578;2022-11-06T08:33:06;100410.84;;;25.77;40.55
3544;BME280;1786;52.870;9.578;2022-11-06T08:35:36;100411.06;;;26.30;39.74
3544;BME280;1786;52.870;9.578;2022-11-06T08:38:04;100421.63;;;27.27;38.76
3544;BME280;1786;52.870;9.578;2022-11-06T08:40:36;100417.09;;;27.86;38.28
3544;BME280;1786;52.870;9.578;2022-11-06T08:43:07;100411.38;;;27.29;38.70
3544;BME280;1786;52.870;9.578;2022-11-06T08:45:39;100411.75;;;28.11;38.09
3544;BME280;1786;52.870;9.578;2022-11-06T08:48:07;100406.81;;;27.94;39.17
3544;BME280;1786;52.870;9.578;2022-11-06T08:50:35;100415.41;;;28.68;37.40
3544;BME280;1786;52.870;9.578;2022-11-06T08:53:04;100420.97;;;29.30;36.52
3544;BME280;1786;52.870;9.578;2022-11-06T08:55:33;100420.59;;;29.45;36.60
3544;BME280;1786;52.870;9.578;2022-11-06T08:58:00;100427.13;;;29.44;36.04
3544;BME280;1786;52.870;9.578;2022-11-06T09:00:28;100426.84;;;29.89;35.51
3544;BME280;1786;52.870;9.578;2022-11-06T09:02:59;100417.94;;;29.82;36.14
3544;BME280;1786;52.870;9.578;2022-11-06T09:05:27;100410.63;;;29.57;36.31
3544;BME280;1786;52.870;9.578;2022-11-06T09:07:55;100408.59;;;30.38;35.50
3544;BME280;1786;52.870;9.578;2022-11-06T09:10:23;100408.19;;;29.74;36.31
3544;BME280;1786;52.870;9.578;2022-11-06T09:12:50;100406.94;;;29.51;36.11
3544;BME280;1786;52.870;9.578;2022-11-06T09:15:17;100418.84;;;31.20;35.64
3544;BME280;1786;52.870;9.578;2022-11-06T09:17:47;100405.03;;;29.33;36.31
3544;BME280;1786;52.870;9.578;2022-11-06T09:20:16;100404.22;;;29.70;36.09
3544;BME280;1786;52.870;9.578;2022-11-06T09:22:47;100408.50;;;29.41;36.39
3544;BME280;1786;52.870;9.578;2022-11-06T09:25:26;100404.25;;;29.63;36.39
3544;BME280;1786;52.870;9.578;2022-11-06T09:27:56;100400.78;;;29.38;36.35
3544;BME280;1786;52.870;9.578;2022-11-06T09:30:31;100396.22;;;29.13;36.95
3544;BME280;1786;52.870;9.578;2022-11-06T09:33:04;100385.66;;;28.41;38.04
3544;BME280;1786;52.870;9.578;2022-11-06T09:35:38;100375.16;;;27.61;38.99
3544;BME280;1786;52.870;9.578;2022-11-06T09:38:12;100362.56;;;25.39;41.91
3544;BME280;1786;52.870;9.578;2022-11-06T09:40:48;100369.13;;;24.95;42.49
3544;BME280;1786;52.870;9.578;2022-11-06T09:43:23;100361.25;;;25.63;41.90
3544;BME280;1786;52.870;9.578;2022-11-06T09:46:38;100363.53;;;26.21;40.92
3544;BME280;1786;52.870;9.578;2022-11-06T09:49:23;100356.06;;;26.37;41.79
3544;BME280;1786;52.870;9.578;2022-11-06T09:52:11;100358.78;;;27.30;40.06
3544;BME280;1786;52.870;9.578;2022-11-06T09:54:46;100366.53;;;26.93;40.58
3544;BME280;1786;52.870;9.578;2022-11-06T09:57:33;100355.50;;;27.73;39.51
3544;BME280;1786;52.870;9.578;2022-11-06T10:00:02;100359.69;;;27.69;39.67
3544;BME280;1786;52.870;9.578;2022-11-06T10:07:39;100350.19;;;27.98;39.07
3544;BME280;1786;52.870;9.578;2022-11-06T10:10:12;100354.28;;;28.14;38.99
3544;BME280;1786;52.870;9.578;2022-11-06T10:19:12;100348.44;;;28.48;38.23
3544;BME280;1786;52.870;9.578;2022-11-06T10:21:47;100346.91;;;28.21;39.17
3544;BME280;1786;52.870;9.578;2022-11-06T10:24:45;100354.41;;;28.25;39.18
3544;BME280;1786;52.870;9.578;2022-11-06T10:27:22;100360.78;;;29.20;37.29
3544;BME280;1786;52.870;9.578;2022-11-06T10:30:03;100360.03;;;29.49;37.45
3544;BME280;1786;52.870;9.578;2022-11-06T10:33:05;100355.13;;;28.96;37.61
3544;BME280;1786;52.870;9.578;2022-11-06T10:35:57;100356.59;;;29.91;37.51
3544;BME280;1786;52.870;9.578;2022-11-06T10:38:33;100349.22;;;29.24;37.42
3544;BME280;1786;52.870;9.578;2022-11-06T10:41:01;100341.03;;;28.24;38.86
3544;BME280;1786;52.870;9.578;2022-11-06T10:43:34;100340.53;;;28.90;38.38
3544;BME280;1786;52.870;9.578;2022-11-06T10:48:38;100320.59;;;26.05;40.80
3544;BME280;1786;52.870;9.578;2022-11-06T10:56:57;100288.16;;;24.87;43.45
3544;BME280;1786;52.870;9.578;2022-11-06T10:59:27;100279.03;;;23.23;45.39
3544;BME280;1786;52.870;9.578;2022-11-06T11:01:54;100279.81;;;24.04;44.71
3544;BME280;1786;52.870;9.578;2022-11-06T11:04:21;100273.09;;;24.00;44.90
3544;BME280;1786;52.870;9.578;2022-11-06T11:06:48;100275.44;;;23.67;44.71
3544;BME280;1786;52.870;9.578;2022-11-06T11:09:32;100275.53;;;24.59;44.30
3544;BME280;1786;52.870;9.578;2022-11-06T11:11:59;100270.91;;;24.10;44.05
3544;BME280;1786;52.870;9.578;2022-11-06T11:14:29;100279.59;;;24.27;45.21
3544;BME280;1786;52.870;9.578;2022-11-06T11:17:00;100271.94;;;22.92;46.16
3544;BME280;1786;52.870;9.578;2022-11-06T11:19:36;100268.09;;;22.57;46.36
3544;BME280;1786;52.870;9.578;2022-11-06T11:22:16;100271.66;;;22.72;47.10
3544;BME280;1786;52.870;9.578;2022-11-06T11:25:00;100272.75;;;22.78;46.38
3544;BME280;1786;52.870;9.578;2022-11-06T11:27:31;100263.38;;;22.59;46.92
3544;BME280;1786;52.870;9.578;2022-11-06T11:30:03;100273.81;;;22.16;48.08
3544;BME280;1786;52.870;9.578;2022-11-06T11:32:30;100258.34;;;22.41;47.96
3544;BME280;1786;52.870;9.578;2022-11-06T11:34:57;100252.81;;;22.87;46.83
3544;BME280;1786;52.870;9.578;2022-11-06T11:37:30;100248.75;;;22.38;47.30
3544;BME280;1786;52.870;9.578;2022-11-06T11:40:38;100243.94;;;22.11;47.83
3544;BME280;1786;52.870;9.578;2022-11-06T11:43:29;100251.28;;;22.55;47.07
3544;BME280;1786;52.870;9.578;2022-11-06T11:48:42;100240.00;;;23.55;46.06
3544;BME280;1786;52.870;9.578;2022-11-06T11:51:30;100243.09;;;23.01;46.94
3544;BME280;1786;52.870;9.578;2022-11-06T11:54:05;100252.81;;;23.68;45.43
3544;BME280;1786;52.870;9.578;2022-11-06T11:56:34;100242.84;;;22.73;46.88
3544;BME280;1786;52.870;9.578;2022-11-06T12:02:19;100237.38;;;23.25;45.90
3544;BME280;1786;52.870;9.578;2022-11-06T12:05:03;100243.50;;;22.60;46.99
3544;BME280;1786;52.870;9.578;2022-11-06T12:11:48;100215.28;;;22.56;47.04
3544;BME280;1786;52.870;9.578;2022-11-06T12:15:26;100214.03;;;22.06;47.46
3544;BME280;1786;52.870;9.578;2022-11-06T12:18:17;100212.41;;;23.02;46.84
3544;BME280;1786;52.870;9.578;2022-11-06T12:21:26;100207.06;;;23.23;45.78
3544;BME280;1786;52.870;9.578;2022-11-06T12:24:18;100196.88;;;22.44;46.98
3544;BME280;1786;52.870;9.578;2022-11-06T12:27:14;100193.63;;;22.94;46.66
3544;BME280;1786;52.870;9.578;2022-11-06T12:29:51;100183.47;;;23.25;46.31
3544;BME280;1786;52.870;9.578;2022-11-06T12:35:21;100161.81;;;23.33;45.42
3544;BME280;1786;52.870;9.578;2022-11-06T12:40:29;100166.88;;;24.08;44.88
3544;BME280;1786;52.870;9.578;2022-11-06T12:51:09;100149.38;;;23.18;45.45
3544;BME280;1786;52.870;9.578;2022-11-06T12:53:54;100142.59;;;23.86;44.97
3544;BME280;1786;52.870;9.578;2022-11-06T12:59:18;100141.13;;;24.40;44.30
3544;BME280;1786;52.870;9.578;2022-11-06T13:05:15;100134.78;;;23.12;45.81
3544;BME280;1786;52.870;9.578;2022-11-06T13:08:07;100141.31;;;23.03;46.27
3544;BME280;1786;52.870;9.578;2022-11-06T13:13:40;100141.16;;;22.60;46.31
3544;BME280;1786;52.870;9.578;2022-11-06T13:18:45;100124.13;;;21.77;47.41
3544;BME280;1786;52.870;9.578;2022-11-06T13:27:12;100104.59;;;21.83;47.82
3544;BME280;1786;52.870;9.578;2022-11-06T13:29:40;100097.63;;;21.74;47.93
3544;BME280;1786;52.870;9.578;2022-11-06T13:32:12;100105.72;;;22.41;47.20
3544;BME280;1786;52.870;9.578;2022-11-06T13:34:42;100095.59;;;22.95;45.73
3544;BME280;1786;52.870;9.578;2022-11-06T13:37:17;100096.94;;;23.63;45.29
3544;BME280;1786;52.870;9.578;2022-11-06T13:42:48;100098.88;;;22.75;45.60
3544;BME280;1786;52.870;9.578;2022-11-06T13:45:17;100092.41;;;22.40;46.10
3544;BME280;1786;52.870;9.578;2022-11-06T13:50:33;100063.56;;;22.49;46.99
3544;BME280;1786;52.870;9.578;2022-11-06T13:53:13;100044.97;;;22.54;45.92
3544;BME280;1786;52.870;9.578;2022-11-06T13:55:49;100041.47;;;22.53;46.37
3544;BME280;1786;52.870;9.578;2022-11-06T13:58:35;100031.88;;;21.91;46.96
3544;BME280;1786;52.870;9.578;2022-11-06T14:01:17;100029.94;;;22.15;46.50
3544;BME280;1786;52.870;9.578;2022-11-06T14:06:30;100043.75;;;22.71;46.00
3544;BME280;1786;52.870;9.578;2022-11-06T14:09:03;100036.81;;;22.98;46.04
3544;BME280;1786;52.870;9.578;2022-11-06T14:11:33;100038.13;;;22.36;46.16
3544;BME280;1786;52.870;9.578;2022-11-06T14:14:05;100032.50;;;21.64;47.29
3544;BME280;1786;52.870;9.578;2022-11-06T14:16:36;100025.38;;;21.33;47.34
3544;BME280;1786;52.870;9.578;2022-11-06T14:19:12;100024.66;;;21.39;47.07
3544;BME280;1786;52.870;9.578;2022-11-06T14:24:31;100024.56;;;21.85;46.66
3544;BME280;1786;52.870;9.578;2022-11-06T14:30:17;100018.16;;;22.45;45.01
3544;BME280;1786;52.870;9.578;2022-11-06T14:32:46;100016.22;;;21.95;45.56
3544;BME280;1786;52.870;9.578;2022-11-06T14:40:43;100013.31;;;21.67;46.22
3544;BME280;1786;52.870;9.578;2022-11-06T14:48:51;100001.22;;;22.30;44.64
3544;BME280;1786;52.870;9.578;2022-11-06T14:51:25;99992.28;;;21.85;45.67
3544;BME280;1786;52.870;9.578;2022-11-06T14:53:59;99997.56;;;21.78;45.36
3544;BME280;1786;52.870;9.578;2022-11-06T14:56:34;100003.53;;;20.90;46.48
3544;BME280;1786;52.870;9.578;2022-11-06T14:59:29;99999.66;;;20.92;47.22
3544;BME280;1786;52.870;9.578;2022-11-06T15:02:13;99996.16;;;20.61;47.01
3544;BME280;1786;52.870;9.578;2022-11-06T15:04:47;99998.72;;;20.46;47.38
3544;BME280;1786;52.870;9.578;2022-11-06T15:15:43;100005.44;;;21.04;46.31
3544;BME280;1786;52.870;9.578;2022-11-06T15:18:13;100009.78;;;20.82;46.69
3544;BME280;1786;52.870;9.578;2022-11-06T15:20:42;100005.91;;;21.08;46.26
3544;BME280;1786;52.870;9.578;2022-11-06T15:23:22;100009.22;;;20.24;47.45
3544;BME280;1786;52.870;9.578;2022-11-06T15:26:01;100005.56;;;20.88;46.63
3544;BME280;1786;52.870;9.578;2022-11-06T15:28:36;99998.63;;;20.93;46.77
3544;BME280;1786;52.870;9.578;2022-11-06T15:31:06;100009.84;;;21.43;45.84
3544;BME280;1786;52.870;9.578;2022-11-06T15:34:02;100013.91;;;21.39;45.94
3544;BME280;1786;52.870;9.578;2022-11-06T15:36:39;100004.78;;;21.25;46.17
3544;BME280;1786;52.870;9.578;2022-11-06T15:39:30;99997.66;;;21.85;45.28
3544;BME280;1786;52.870;9.578;2022-11-06T15:41:58;100007.03;;;22.04;44.81
3544;BME280;1786;52.870;9.578;2022-11-06T15:44:25;100007.28;;;21.50;45.79
3544;BME280;1786;52.870;9.578;2022-11-06T15:46:57;100000.25;;;21.64;45.75
3544;BME280;1786;52.870;9.578;2022-11-06T15:49:24;99998.69;;;21.99;45.20
3544;BME280;1786;52.870;9.578;2022-11-06T15:52:01;100006.44;;;21.64;45.63
3544;BME280;1786;52.870;9.578;2022-11-06T15:54:39;100006.84;;;21.38;46.40
3544;BME280;1786;52.870;9.578;2022-11-06T15:57:14;99993.81;;;21.27;46.43
3544;BME280;1786;52.870;9.578;2022-11-06T15:59:43;99994.13;;;21.09;46.38
3544;BME280;1786;52.870;9.578;2022-11-06T16:02:17;99991.72;;;20.99;46.84
3544;BME280;1786;52.870;9.578;2022-11-06T16:04:45;99970.25;;;21.14;46.97
3544;BME280;1786;52.870;9.578;2022-11-06T16:07:12;99974.50;;;21.08;47.17
3544;BME280;1786;52.870;9.578;2022-11-06T16:09:41;99973.81;;;21.52;46.34
3544;BME280;1786;52.870;9.578;2022-11-06T16:12:11;99972.34;;;21.79;46.18
3544;BME280;1786;52.870;9.578;2022-11-06T16:14:40;99976.16;;;21.85;46.29
3544;BME280;1786;52.870;9.578;2022-11-06T16:17:25;99975.34;;;21.32;46.77
3544;BME280;1786;52.870;9.578;2022-11-06T16:19:56;99983.69;;;21.37;47.01
3544;BME280;1786;52.870;9.578;2022-11-06T16:22:31;99976.75;;;21.43;46.92
3544;BME280;1786;52.870;9.578;2022-11-06T16:25:02;99969.50;;;20.59;48.00
3544;BME280;1786;52.870;9.578;2022-11-06T16:27:34;99956.38;;;20.64;47.74
3544;BME280;1786;52.870;9.578;2022-11-06T16:30:03;99959.09;;;20.56;47.89
3544;BME280;1786;52.870;9.578;2022-11-06T16:32:37;99960.06;;;20.86;47.74
3544;BME280;1786;52.870;9.578;2022-11-06T16:35:30;99965.72;;;20.68;47.83
3544;BME280;1786;52.870;9.578;2022-11-06T16:41:07;99931.19;;;20.65;47.89
3544;BME280;1786;52.870;9.578;2022-11-06T16:43:35;99930.00;;;20.68;47.64
3544;BME280;1786;52.870;9.578;2022-11-06T16:46:03;99943.38;;;21.37;46.84
3544;BME280;1786;52.870;9.578;2022-11-06T16:48:35;99926.59;;;20.97;47.41
3544;BME280;1786;52.870;9.578;2022-11-06T16:51:08;99928.28;;;21.13;47.16
3544;BME280;1786;52.870;9.578;2022-11-06T16:53:50;99929.41;;;21.18;46.83
3544;BME280;1786;52.870;9.578;2022-11-06T16:56:36;99921.59;;;21.32;46.90
3544;BME280;1786;52.870;9.578;2022-11-06T16:59:08;99924.31;;;21.24;46.84
3544;BME280;1786;52.870;9.578;2022-11-06T17:01:42;99920.78;;;21.08;47.11
3544;BME280;1786;52.870;9.578;2022-11-06T17:04:20;99920.91;;;21.15;46.97
3544;BME280;1786;52.870;9.578;2022-11-06T17:06:50;99920.50;;;21.41;46.42
3544;BME280;1786;52.870;9.578;2022-11-06T17:11:55;99919.97;;;21.23;46.74
3544;BME280;1786;52.870;9.578;2022-11-06T17:14:23;99911.06;;;21.60;46.60
3544;BME280;1786;52.870;9.578;2022-11-06T17:16:55;99924.78;;;21.50;46.15
3544;BME280;1786;52.870;9.578;2022-11-06T17:19:24;99924.56;;;21.52;46.29
3544;BME280;1786;52.870;9.578;2022-11-06T17:21:51;99920.84;;;21.38;46.32
3544;BME280;1786;52.870;9.578;2022-11-06T17:24:18;99922.63;;;21.60;46.11
3544;BME280;1786;52.870;9.578;2022-11-06T17:27:05;99920.06;;;21.14;46.83
3544;BME280;1786;52.870;9.578;2022-11-06T17:29:32;99908.28;;;20.55;47.74
3544;BME280;1786;52.870;9.578;2022-11-06T17:32:01;99903.16;;;20.68;47.64
3544;BME280;1786;52.870;9.578;2022-11-06T17:34:28;99887.50;;;20.57;47.97
3544;BME280;1786;52.870;9.578;2022-11-06T17:36:55;99898.63;;;20.14;48.63
3544;BME280;1786;52.870;9.578;2022-11-06T17:39:21;99899.28;;;20.70;47.85
3544;BME280;1786;52.870;9.578;2022-11-06T17:41:48;99902.78;;;20.71;47.65
3544;BME280;1786;52.870;9.578;2022-11-06T17:44:16;99903.84;;;20.39;48.23